Wetterdaten: aktuell Samstag, 05.09.2026 13:45
Datum Zeit Temp. A. Feuchte A. Luftdruck Regen Wind Richtung Richtung Taupunkt Windchill Windböen
05.09.2026 13:45 20,6 °C 61 % 1023,0 hPa 0,0 mm 12,5 km/h (3 Bft) W-NW 296 ° 12,8 °C 18,6 °C 24,1 km/h (4 Bft)
05.09.2026 13:40 20,7 °C 63 % 1023,1 hPa 0,0 mm 10,7 km/h (2 Bft) W 280 ° 13,4 °C 19,2 °C 17,7 km/h (3 Bft)
05.09.2026 13:35 20,8 °C 64 % 1023,0 hPa 0,0 mm 11,1 km/h (2 Bft) W-SW 252 ° 13,7 °C 19,2 °C 24,1 km/h (4 Bft)
05.09.2026 13:30 20,6 °C 63 % 1023,0 hPa 0,0 mm 12,0 km/h (2 Bft) W-SW 255 ° 13,3 °C 18,7 °C 24,1 km/h (4 Bft)
05.09.2026 13:25 20,4 °C 62 % 1022,9 hPa 0,0 mm 14,4 km/h (3 Bft) W 263 ° 12,9 °C 17,9 °C 22,5 km/h (4 Bft)
05.09.2026 13:20 20,6 °C 65 % 1023,0 hPa 0,0 mm 10,3 km/h (2 Bft) W-SW 251 ° 13,8 °C 19,2 °C 19,3 km/h (3 Bft)
05.09.2026 13:15 20,5 °C 65 % 1023,0 hPa 0,0 mm 9,7 km/h (2 Bft) W 269 ° 13,7 °C 19,3 °C 17,7 km/h (3 Bft)
05.09.2026 13:10 20,3 °C 65 % 1022,9 hPa 0,0 mm 11,7 km/h (2 Bft) W 267 ° 13,5 °C 18,5 °C 20,9 km/h (4 Bft)
05.09.2026 13:05 20,3 °C 64 % 1022,9 hPa 0,0 mm 12,0 km/h (2 Bft) W-NW 284 ° 13,3 °C 18,4 °C 22,5 km/h (4 Bft)
05.09.2026 13:00 20,2 °C 64 % 1022,9 hPa 0,0 mm 11,6 km/h (2 Bft) N-NW 329 ° 13,2 °C 18,4 °C 27,4 km/h (4 Bft)
05.09.2026 12:55 19,8 °C 65 % 1022,9 hPa 0,0 mm 12,4 km/h (3 Bft) W 279 ° 13,0 °C 17,7 °C 24,1 km/h (4 Bft)
05.09.2026 12:50 19,9 °C 66 % 1023,0 hPa 0,0 mm 11,8 km/h (2 Bft) W-NW 290 ° 13,4 °C 18,0 °C 22,5 km/h (4 Bft)
05.09.2026 12:45 19,8 °C 67 % 1023,0 hPa 0,0 mm 13,2 km/h (3 Bft) W 273 ° 13,5 °C 17,5 °C 24,1 km/h (4 Bft)
05.09.2026 12:40 19,9 °C 65 % 1022,9 hPa 0,0 mm 12,8 km/h (3 Bft) W-NW 299 ° 13,1 °C 17,7 °C 29,0 km/h (5 Bft)
05.09.2026 12:35 20,0 °C 67 % 1022,8 hPa 0,0 mm 10,4 km/h (2 Bft) W 267 ° 13,7 °C 18,5 °C 19,3 km/h (3 Bft)
05.09.2026 12:30 19,7 °C 67 % 1022,8 hPa 0,0 mm 11,6 km/h (2 Bft) W 266 ° 13,4 °C 17,8 °C 24,1 km/h (4 Bft)
05.09.2026 12:25 19,6 °C 67 % 1022,8 hPa 0,0 mm 13,8 km/h (3 Bft) W-SW 246 ° 13,3 °C 17,1 °C 25,7 km/h (4 Bft)
05.09.2026 12:20 19,5 °C 67 % 1022,8 hPa 0,0 mm 13,8 km/h (3 Bft) W 280 ° 13,2 °C 17,0 °C 32,2 km/h (5 Bft)
05.09.2026 12:15 19,5 °C 68 % 1022,6 hPa 0,0 mm 10,5 km/h (2 Bft) W-SW 258 ° 13,4 °C 17,9 °C 24,1 km/h (4 Bft)
05.09.2026 12:10 19,3 °C 69 % 1022,7 hPa 0,0 mm 11,4 km/h (2 Bft) W 267 ° 13,5 °C 17,4 °C 22,5 km/h (4 Bft)
05.09.2026 12:05 19,3 °C 68 % 1022,6 hPa 0,0 mm 13,9 km/h (3 Bft) W-NW 295 ° 13,2 °C 16,7 °C 24,1 km/h (4 Bft)
05.09.2026 12:00 19,3 °C 69 % 1022,6 hPa 0,0 mm 13,9 km/h (3 Bft) W 279 ° 13,5 °C 16,7 °C 24,1 km/h (4 Bft)
05.09.2026 11:55 19,3 °C 72 % 1022,7 hPa 0,0 mm 10,2 km/h (2 Bft) W-NW 292 ° 14,1 °C 17,8 °C 22,5 km/h (4 Bft)
05.09.2026 11:50 19,1 °C 70 % 1022,5 hPa 0,0 mm 11,8 km/h (2 Bft) NW 306 ° 13,5 °C 17,1 °C 22,5 km/h (4 Bft)
05.09.2026 11:45 19,0 °C 69 % 1022,5 hPa 0,0 mm 13,0 km/h (3 Bft) SW 223 ° 13,2 °C 16,6 °C 24,1 km/h (4 Bft)
05.09.2026 11:40 19,1 °C 70 % 1022,5 hPa 0,0 mm 10,8 km/h (2 Bft) W-SW 243 ° 13,5 °C 17,4 °C 22,5 km/h (4 Bft)
05.09.2026 11:35 18,8 °C 72 % 1022,5 hPa 0,0 mm 10,3 km/h (2 Bft) W-SW 252 ° 13,6 °C 17,2 °C 17,7 km/h (3 Bft)
05.09.2026 11:30 18,7 °C 72 % 1022,5 hPa 0,0 mm 12,4 km/h (3 Bft) W 280 ° 13,5 °C 16,4 °C 20,9 km/h (4 Bft)
05.09.2026 11:25 18,6 °C 72 % 1022,4 hPa 0,0 mm 13,0 km/h (3 Bft) W 276 ° 13,4 °C 16,1 °C 22,5 km/h (4 Bft)
05.09.2026 11:20 18,6 °C 74 % 1022,3 hPa 0,0 mm 11,6 km/h (2 Bft) W-SW 250 ° 13,9 °C 16,5 °C 24,1 km/h (4 Bft)
05.09.2026 11:15 18,4 °C 73 % 1022,3 hPa 0,0 mm 11,9 km/h (2 Bft) W-SW 244 ° 13,5 °C 16,2 °C 22,5 km/h (4 Bft)
05.09.2026 11:10 18,3 °C 73 % 1022,2 hPa 0,0 mm 13,3 km/h (3 Bft) W 273 ° 13,4 °C 15,7 °C 22,5 km/h (4 Bft)
05.09.2026 11:05 18,2 °C 75 % 1022,2 hPa 0,0 mm 12,4 km/h (3 Bft) W-SW 256 ° 13,7 °C 15,8 °C 22,5 km/h (4 Bft)
05.09.2026 11:00 18,1 °C 74 % 1022,2 hPa 0,0 mm 13,2 km/h (3 Bft) W 279 ° 13,4 °C 15,5 °C 22,5 km/h (4 Bft)
05.09.2026 10:55 17,9 °C 77 % 1022,1 hPa 0,0 mm 10,1 km/h (2 Bft) W 269 ° 13,8 °C 16,3 °C 17,7 km/h (3 Bft)
05.09.2026 10:50 17,8 °C 74 % 1022,1 hPa 0,0 mm 10,5 km/h (2 Bft) W-NW 289 ° 13,1 °C 16,0 °C 22,5 km/h (4 Bft)
05.09.2026 10:45 17,8 °C 76 % 1021,9 hPa 0,0 mm 9,9 km/h (2 Bft) W-NW 282 ° 13,5 °C 16,2 °C 19,3 km/h (3 Bft)
05.09.2026 10:40 17,8 °C 77 % 1021,8 hPa 0,0 mm 12,3 km/h (3 Bft) W 261 ° 13,7 °C 15,4 °C 19,3 km/h (3 Bft)
05.09.2026 10:35 17,7 °C 78 % 1022,0 hPa 0,0 mm 8,7 km/h (2 Bft) W-SW 242 ° 13,8 °C 16,6 °C 17,7 km/h (3 Bft)
05.09.2026 10:30 17,7 °C 77 % 1022,0 hPa 0,0 mm 12,8 km/h (3 Bft) W 264 ° 13,6 °C 15,1 °C 24,1 km/h (4 Bft)
05.09.2026 10:25 17,8 °C 78 % 1021,9 hPa 0,0 mm 9,7 km/h (2 Bft) W-NW 287 ° 13,9 °C 16,3 °C 19,3 km/h (3 Bft)
05.09.2026 10:20 17,6 °C 80 % 1021,8 hPa 0,0 mm 10,8 km/h (2 Bft) W 274 ° 14,1 °C 15,7 °C 20,9 km/h (4 Bft)
05.09.2026 10:15 17,4 °C 80 % 1021,9 hPa 0,0 mm 9,1 km/h (2 Bft) W 277 ° 13,9 °C 16,1 °C 17,7 km/h (3 Bft)
05.09.2026 10:10 17,3 °C 82 % 1021,8 hPa 0,0 mm 9,9 km/h (2 Bft) W-NW 292 ° 14,2 °C 15,7 °C 19,3 km/h (3 Bft)
05.09.2026 10:05 17,2 °C 83 % 1021,7 hPa 0,0 mm 7,2 km/h (2 Bft) W-NW 286 ° 14,3 °C 16,8 °C 14,5 km/h (3 Bft)
05.09.2026 10:00 17,1 °C 83 % 1021,7 hPa 0,0 mm 7,5 km/h (2 Bft) W-NW 282 ° 14,2 °C 16,5 °C 16,1 km/h (3 Bft)
05.09.2026 09:55 17,0 °C 84 % 1021,6 hPa 0,0 mm 8,6 km/h (2 Bft) SW 236 ° 14,3 °C 15,9 °C 16,1 km/h (3 Bft)
05.09.2026 09:50 17,0 °C 83 % 1021,5 hPa 0,0 mm 10,0 km/h (2 Bft) W 278 ° 14,1 °C 15,3 °C 17,7 km/h (3 Bft)
05.09.2026 09:45 16,9 °C 85 % 1021,5 hPa 0,0 mm 7,1 km/h (2 Bft) W 266 ° 14,4 °C 16,5 °C 16,1 km/h (3 Bft)
05.09.2026 09:40 16,9 °C 85 % 1021,5 hPa 0,0 mm 6,2 km/h (2 Bft) W-SW 257 ° 14,4 °C 16,9 °C 11,3 km/h (2 Bft)
05.09.2026 09:35 16,8 °C 86 % 1021,3 hPa 0,0 mm 5,9 km/h (2 Bft) W 281 ° 14,4 °C 16,8 °C 14,5 km/h (3 Bft)
05.09.2026 09:30 16,6 °C 85 % 1021,3 hPa 0,0 mm 8,5 km/h (2 Bft) W-SW 250 ° 14,1 °C 15,5 °C 17,7 km/h (3 Bft)
05.09.2026 09:25 16,4 °C 85 % 1021,2 hPa 0,0 mm 8,3 km/h (2 Bft) W 276 ° 13,9 °C 15,4 °C 16,1 km/h (3 Bft)
05.09.2026 09:20 16,4 °C 85 % 1021,2 hPa 0,0 mm 7,3 km/h (2 Bft) W-SW 254 ° 13,9 °C 15,9 °C 14,5 km/h (3 Bft)
05.09.2026 09:15 16,4 °C 85 % 1021,2 hPa 0,0 mm 6,2 km/h (2 Bft) SW 232 ° 13,9 °C 16,4 °C 14,5 km/h (3 Bft)
05.09.2026 09:10 16,4 °C 86 % 1021,1 hPa 0,0 mm 6,3 km/h (2 Bft) W 269 ° 14,1 °C 16,4 °C 11,3 km/h (2 Bft)
05.09.2026 09:05 16,3 °C 86 % 1021,0 hPa 0,0 mm 5,4 km/h (1 Bft) W 259 ° 14,0 °C 16,3 °C 14,5 km/h (3 Bft)
05.09.2026 09:00 16,2 °C 87 % 1021,0 hPa 0,0 mm 4,8 km/h (1 Bft) W 269 ° 14,0 °C 16,2 °C 11,3 km/h (2 Bft)
05.09.2026 08:55 16,1 °C 87 % 1020,8 hPa 0,0 mm 3,4 km/h (1 Bft) W-SW 250 ° 13,9 °C 16,1 °C 11,3 km/h (2 Bft)
05.09.2026 08:50 15,9 °C 87 % 1020,8 hPa 0,0 mm 3,4 km/h (1 Bft) N 360 ° 13,7 °C 15,9 °C 9,7 km/h (2 Bft)
05.09.2026 08:45 15,8 °C 88 % 1020,8 hPa 0,0 mm 4,5 km/h (1 Bft) N 360 ° 13,8 °C 15,8 °C 9,7 km/h (2 Bft)
05.09.2026 08:40 15,7 °C 88 % 1020,9 hPa 0,0 mm 3,5 km/h (1 Bft) W-SW 246 ° 13,7 °C 15,7 °C 12,9 km/h (3 Bft)
05.09.2026 08:35 15,5 °C 88 % 1020,8 hPa 0,0 mm 4,5 km/h (1 Bft) SW 218 ° 13,5 °C 15,5 °C 12,9 km/h (3 Bft)
05.09.2026 08:30 15,4 °C 89 % 1020,8 hPa 0,0 mm 3,6 km/h (1 Bft) W-SW 238 ° 13,6 °C 15,4 °C 8,0 km/h (2 Bft)
05.09.2026 08:25 15,3 °C 89 % 1020,7 hPa 0,0 mm 2,9 km/h (1 Bft) N 360 ° 13,5 °C 15,3 °C 8,0 km/h (2 Bft)
05.09.2026 08:20 15,2 °C 90 % 1020,7 hPa 0,0 mm 4,1 km/h (1 Bft) SW 236 ° 13,6 °C 15,2 °C 9,7 km/h (2 Bft)
05.09.2026 08:15 14,9 °C 90 % 1020,5 hPa 0,0 mm 4,3 km/h (1 Bft) W-SW 239 ° 13,3 °C 14,9 °C 9,7 km/h (2 Bft)
05.09.2026 08:10 14,9 °C 91 % 1020,5 hPa 0,0 mm 3,9 km/h (1 Bft) SW 236 ° 13,4 °C 14,9 °C 8,0 km/h (2 Bft)
05.09.2026 08:05 14,7 °C 91 % 1020,5 hPa 0,0 mm 3,9 km/h (1 Bft) N 360 ° 13,2 °C 14,7 °C 8,0 km/h (2 Bft)
05.09.2026 08:00 14,6 °C 91 % 1020,4 hPa 0,0 mm 3,2 km/h (1 Bft) N 360 ° 13,1 °C 14,6 °C 8,0 km/h (2 Bft)
05.09.2026 07:55 14,5 °C 92 % 1020,4 hPa 0,0 mm 3,9 km/h (1 Bft) N 360 ° 13,2 °C 14,5 °C 8,0 km/h (2 Bft)
05.09.2026 07:50 14,3 °C 92 % 1020,2 hPa 0,0 mm 3,3 km/h (1 Bft) W-SW 244 ° 13,0 °C 14,3 °C 8,0 km/h (2 Bft)
05.09.2026 07:45 14,3 °C 92 % 1020,2 hPa 0,0 mm 4,2 km/h (1 Bft) W-SW 244 ° 13,0 °C 14,3 °C 11,3 km/h (2 Bft)
05.09.2026 07:40 14,1 °C 92 % 1020,2 hPa 0,0 mm 2,7 km/h (1 Bft) W-SW 244 ° 12,8 °C 14,1 °C 8,0 km/h (2 Bft)
05.09.2026 07:35 14,0 °C 92 % 1020,1 hPa 0,0 mm 3,6 km/h (1 Bft) W 263 ° 12,7 °C 14,0 °C 9,7 km/h (2 Bft)
05.09.2026 07:30 14,0 °C 93 % 1019,9 hPa 0,0 mm 2,8 km/h (1 Bft) W 269 ° 12,9 °C 14,0 °C 9,7 km/h (2 Bft)
05.09.2026 07:25 14,0 °C 93 % 1019,9 hPa 0,0 mm 2,0 km/h (1 Bft) W 271 ° 12,9 °C 14,0 °C 6,4 km/h (2 Bft)
05.09.2026 07:20 13,9 °C 93 % 1019,8 hPa 0,0 mm 2,3 km/h (1 Bft) W 271 ° 12,8 °C 13,9 °C 6,4 km/h (2 Bft)
05.09.2026 07:15 13,9 °C 93 % 1019,8 hPa 0,0 mm 2,6 km/h (1 Bft) W 271 ° 12,8 °C 13,9 °C 6,4 km/h (2 Bft)
05.09.2026 07:10 13,8 °C 93 % 1019,8 hPa 0,0 mm 0,8 km/h (0 Bft) W 273 ° 12,7 °C 13,8 °C 6,4 km/h (2 Bft)
05.09.2026 07:05 13,8 °C 93 % 1019,6 hPa 0,0 mm 1,1 km/h (1 Bft) W 273 ° 12,7 °C 13,8 °C 4,8 km/h (1 Bft)
05.09.2026 07:00 13,8 °C 93 % 1019,5 hPa 0,0 mm 2,9 km/h (1 Bft) W 273 ° 12,7 °C 13,8 °C 4,8 km/h (1 Bft)
05.09.2026 06:55 13,9 °C 93 % 1019,5 hPa 0,0 mm 2,4 km/h (1 Bft) W 273 ° 12,8 °C 13,9 °C 4,8 km/h (1 Bft)
05.09.2026 06:50 13,9 °C 93 % 1019,5 hPa 0,0 mm 0,0 km/h (0 Bft) W 273 ° 12,8 °C 13,9 °C 0,0 km/h (0 Bft)
05.09.2026 06:45 13,9 °C 93 % 1019,5 hPa 0,0 mm 0,0 km/h (0 Bft) W 274 ° 12,8 °C 13,9 °C 0,0 km/h (0 Bft)
05.09.2026 06:40 13,9 °C 93 % 1019,4 hPa 0,0 mm 0,0 km/h (0 Bft) W 274 ° 12,8 °C 13,9 °C 0,0 km/h (0 Bft)
05.09.2026 06:35 13,9 °C 93 % 1019,2 hPa 0,0 mm 0,3 km/h (0 Bft) W 274 ° 12,8 °C 13,9 °C 3,2 km/h (1 Bft)
05.09.2026 06:30 13,9 °C 93 % 1019,1 hPa 0,0 mm 2,0 km/h (1 Bft) W 274 ° 12,8 °C 13,9 °C 4,8 km/h (1 Bft)
05.09.2026 06:25 13,9 °C 93 % 1019,0 hPa 0,0 mm 0,0 km/h (0 Bft) W 274 ° 12,8 °C 13,9 °C 0,0 km/h (0 Bft)
05.09.2026 06:20 13,9 °C 93 % 1018,9 hPa 0,0 mm 0,0 km/h (0 Bft) W 274 ° 12,8 °C 13,9 °C 0,0 km/h (0 Bft)
05.09.2026 06:15 14,0 °C 93 % 1018,9 hPa 0,0 mm 0,0 km/h (0 Bft) W 274 ° 12,9 °C 14,0 °C 0,0 km/h (0 Bft)
05.09.2026 06:10 14,0 °C 92 % 1018,8 hPa 0,0 mm 0,0 km/h (0 Bft) W 274 ° 12,7 °C 14,0 °C 0,0 km/h (0 Bft)
05.09.2026 06:05 14,1 °C 92 % 1018,7 hPa 0,0 mm 0,0 km/h (0 Bft) N 360 ° 12,8 °C 14,1 °C 0,0 km/h (0 Bft)
05.09.2026 06:00 14,2 °C 92 % 1018,7 hPa 0,0 mm 0,0 km/h (0 Bft) N 360 ° 12,9 °C 14,2 °C 0,0 km/h (0 Bft)
05.09.2026 05:55 14,2 °C 92 % 1018,7 hPa 0,0 mm 0,0 km/h (0 Bft) N 360 ° 12,9 °C 14,2 °C 0,0 km/h (0 Bft)
05.09.2026 05:50 14,2 °C 92 % 1018,8 hPa 0,0 mm 0,0 km/h (0 Bft) N 360 ° 12,9 °C 14,2 °C 0,0 km/h (0 Bft)
05.09.2026 05:45 14,3 °C 92 % 1018,7 hPa 0,0 mm 0,0 km/h (0 Bft) N 360 ° 13,0 °C 14,3 °C 0,0 km/h (0 Bft)
05.09.2026 05:40 14,4 °C 92 % 1018,6 hPa 0,0 mm 0,0 km/h (0 Bft) W 274 ° 13,1 °C 14,4 °C 0,0 km/h (0 Bft)
05.09.2026 05:35 14,3 °C 93 % 1018,7 hPa 0,0 mm 0,0 km/h (0 Bft) W 275 ° 13,2 °C 14,3 °C 0,0 km/h (0 Bft)
05.09.2026 05:30 14,4 °C 93 % 1018,8 hPa 0,0 mm 0,0 km/h (0 Bft) W 275 ° 13,3 °C 14,4 °C 0,0 km/h (0 Bft)
05.09.2026 05:25 14,4 °C 93 % 1018,8 hPa 0,0 mm 0,0 km/h (0 Bft) W 275 ° 13,3 °C 14,4 °C 0,0 km/h (0 Bft)
05.09.2026 05:20 14,4 °C 92 % 1018,8 hPa 0,0 mm 0,0 km/h (0 Bft) W 275 ° 13,1 °C 14,4 °C 0,0 km/h (0 Bft)
05.09.2026 05:15 14,5 °C 92 % 1018,8 hPa 0,0 mm 0,0 km/h (0 Bft) W 275 ° 13,2 °C 14,5 °C 0,0 km/h (0 Bft)
05.09.2026 05:10 14,6 °C 92 % 1018,7 hPa 0,0 mm 0,0 km/h (0 Bft) W 275 ° 13,3 °C 14,6 °C 0,0 km/h (0 Bft)
05.09.2026 05:05 14,6 °C 92 % 1018,7 hPa 0,0 mm 0,0 km/h (0 Bft) W 275 ° 13,3 °C 14,6 °C 0,0 km/h (0 Bft)
05.09.2026 05:00 14,6 °C 92 % 1018,7 hPa 0,0 mm 0,0 km/h (0 Bft) W 275 ° 13,3 °C 14,6 °C 0,0 km/h (0 Bft)
05.09.2026 04:55 14,7 °C 92 % 1018,6 hPa 0,0 mm 0,0 km/h (0 Bft) W 275 ° 13,4 °C 14,7 °C 0,0 km/h (0 Bft)
05.09.2026 04:50 14,7 °C 92 % 1018,5 hPa 0,0 mm 0,0 km/h (0 Bft) W 275 ° 13,4 °C 14,7 °C 0,0 km/h (0 Bft)
05.09.2026 04:45 14,8 °C 92 % 1018,5 hPa 0,0 mm 0,0 km/h (0 Bft) W 275 ° 13,5 °C 14,8 °C 0,0 km/h (0 Bft)
05.09.2026 04:40 14,9 °C 92 % 1018,5 hPa 0,0 mm 0,0 km/h (0 Bft) W 275 ° 13,6 °C 14,9 °C 0,0 km/h (0 Bft)
05.09.2026 04:35 14,9 °C 92 % 1018,4 hPa 0,0 mm 0,0 km/h (0 Bft) W 275 ° 13,6 °C 14,9 °C 0,0 km/h (0 Bft)
05.09.2026 04:30 15,1 °C 92 % 1018,3 hPa 0,0 mm 0,0 km/h (0 Bft) W 274 ° 13,8 °C 15,1 °C 0,0 km/h (0 Bft)
05.09.2026 04:25 15,1 °C 92 % 1018,3 hPa 0,0 mm 0,0 km/h (0 Bft) W 273 ° 13,8 °C 15,1 °C 0,0 km/h (0 Bft)
05.09.2026 04:20 15,1 °C 92 % 1018,4 hPa 0,0 mm 0,0 km/h (0 Bft) W 274 ° 13,8 °C 15,1 °C 0,0 km/h (0 Bft)
05.09.2026 04:15 15,2 °C 91 % 1018,2 hPa 0,0 mm 0,0 km/h (0 Bft) W 274 ° 13,7 °C 15,2 °C 0,0 km/h (0 Bft)
05.09.2026 04:10 15,2 °C 91 % 1018,2 hPa 0,0 mm 0,0 km/h (0 Bft) W 274 ° 13,7 °C 15,2 °C 0,0 km/h (0 Bft)
05.09.2026 04:05 15,2 °C 91 % 1018,3 hPa 0,0 mm 0,0 km/h (0 Bft) W 274 ° 13,7 °C 15,2 °C 0,0 km/h (0 Bft)
05.09.2026 04:00 15,3 °C 91 % 1018,2 hPa 0,0 mm 0,0 km/h (0 Bft) W 274 ° 13,8 °C 15,3 °C 0,0 km/h (0 Bft)
05.09.2026 03:55 15,3 °C 91 % 1018,2 hPa 0,0 mm 0,0 km/h (0 Bft) W 275 ° 13,8 °C 15,3 °C 0,0 km/h (0 Bft)
05.09.2026 03:50 15,4 °C 91 % 1018,3 hPa 0,0 mm 1,3 km/h (1 Bft) W 275 ° 13,9 °C 15,4 °C 6,4 km/h (2 Bft)
05.09.2026 03:45 15,6 °C 91 % 1018,0 hPa 0,0 mm 2,2 km/h (1 Bft) W 275 ° 14,1 °C 15,6 °C 4,8 km/h (1 Bft)
05.09.2026 03:40 15,7 °C 91 % 1018,1 hPa 0,0 mm 2,6 km/h (1 Bft) W 275 ° 14,2 °C 15,7 °C 4,8 km/h (1 Bft)
05.09.2026 03:35 15,7 °C 91 % 1018,0 hPa 0,0 mm 3,2 km/h (1 Bft) W 275 ° 14,2 °C 15,7 °C 9,7 km/h (2 Bft)
05.09.2026 03:30 15,9 °C 91 % 1018,0 hPa 0,0 mm 3,0 km/h (1 Bft) W 277 ° 14,4 °C 15,9 °C 6,4 km/h (2 Bft)
05.09.2026 03:25 15,9 °C 91 % 1017,9 hPa 0,0 mm 3,0 km/h (1 Bft) W 277 ° 14,4 °C 15,9 °C 6,4 km/h (2 Bft)
05.09.2026 03:20 16,1 °C 91 % 1017,8 hPa 0,0 mm 4,7 km/h (1 Bft) W 277 ° 14,6 °C 16,1 °C 11,3 km/h (2 Bft)
05.09.2026 03:15 16,1 °C 91 % 1017,8 hPa 0,0 mm 3,9 km/h (1 Bft) W 277 ° 14,6 °C 16,1 °C 9,7 km/h (2 Bft)
05.09.2026 03:10 16,2 °C 91 % 1017,8 hPa 0,0 mm 3,5 km/h (1 Bft) W 281 ° 14,7 °C 16,2 °C 9,7 km/h (2 Bft)
05.09.2026 03:05 16,2 °C 91 % 1017,6 hPa 0,0 mm 3,4 km/h (1 Bft) W-NW 282 ° 14,7 °C 16,2 °C 9,7 km/h (2 Bft)
05.09.2026 03:00 16,3 °C 91 % 1017,7 hPa 0,0 mm 2,2 km/h (1 Bft) W 281 ° 14,8 °C 16,3 °C 4,8 km/h (1 Bft)
05.09.2026 02:55 16,4 °C 91 % 1017,6 hPa 0,0 mm 3,0 km/h (1 Bft) W 281 ° 14,9 °C 16,4 °C 6,4 km/h (2 Bft)
05.09.2026 02:50 16,4 °C 92 % 1017,8 hPa 0,0 mm 3,7 km/h (1 Bft) W 281 ° 15,1 °C 16,4 °C 9,7 km/h (2 Bft)
05.09.2026 02:45 16,3 °C 92 % 1017,7 hPa 0,0 mm 4,1 km/h (1 Bft) W 281 ° 15,0 °C 16,3 °C 9,7 km/h (2 Bft)
05.09.2026 02:40 16,3 °C 92 % 1017,7 hPa 0,0 mm 4,0 km/h (1 Bft) W 281 ° 15,0 °C 16,3 °C 11,3 km/h (2 Bft)
05.09.2026 02:35 16,3 °C 92 % 1017,6 hPa 0,0 mm 3,3 km/h (1 Bft) W 281 ° 15,0 °C 16,3 °C 6,4 km/h (2 Bft)
05.09.2026 02:30 16,3 °C 92 % 1017,7 hPa 0,0 mm 4,0 km/h (1 Bft) W 281 ° 15,0 °C 16,3 °C 9,7 km/h (2 Bft)
05.09.2026 02:25 16,4 °C 92 % 1017,7 hPa 0,0 mm 4,9 km/h (1 Bft) W 279 ° 15,1 °C 16,4 °C 11,3 km/h (2 Bft)
05.09.2026 02:20 16,4 °C 92 % 1017,5 hPa 0,0 mm 4,2 km/h (1 Bft) W-NW 283 ° 15,1 °C 16,4 °C 11,3 km/h (2 Bft)
05.09.2026 02:15 16,5 °C 92 % 1017,5 hPa 0,0 mm 3,8 km/h (1 Bft) W-NW 285 ° 15,2 °C 16,5 °C 6,4 km/h (2 Bft)
05.09.2026 02:10 16,6 °C 92 % 1017,4 hPa 0,0 mm 5,3 km/h (1 Bft) W-NW 285 ° 15,3 °C 16,6 °C 11,3 km/h (2 Bft)
05.09.2026 02:05 16,7 °C 92 % 1017,6 hPa 0,0 mm 6,2 km/h (2 Bft) W 277 ° 15,4 °C 16,7 °C 12,9 km/h (3 Bft)
05.09.2026 02:00 16,8 °C 93 % 1017,5 hPa 0,0 mm 3,9 km/h (1 Bft) W 273 ° 15,7 °C 16,8 °C 9,7 km/h (2 Bft)
05.09.2026 01:55 16,9 °C 93 % 1017,5 hPa 0,0 mm 6,0 km/h (2 Bft) W 279 ° 15,8 °C 16,9 °C 12,9 km/h (3 Bft)
05.09.2026 01:50 17,1 °C 93 % 1017,6 hPa 0,0 mm 4,9 km/h (1 Bft) W 281 ° 16,0 °C 17,1 °C 9,7 km/h (2 Bft)
05.09.2026 01:45 17,2 °C 94 % 1017,6 hPa 0,0 mm 5,2 km/h (1 Bft) W 277 ° 16,2 °C 17,2 °C 11,3 km/h (2 Bft)
05.09.2026 01:40 17,3 °C 94 % 1017,6 hPa 0,0 mm 6,3 km/h (2 Bft) W 273 ° 16,3 °C 17,3 °C 11,3 km/h (2 Bft)
05.09.2026 01:35 17,3 °C 94 % 1017,6 hPa 0,2 mm 5,1 km/h (1 Bft) W-NW 282 ° 16,3 °C 17,3 °C 9,7 km/h (2 Bft)
05.09.2026 01:30 17,3 °C 94 % 1017,6 hPa 0,0 mm 5,6 km/h (1 Bft) W 275 ° 16,3 °C 17,3 °C 11,3 km/h (2 Bft)
05.09.2026 01:25 17,3 °C 94 % 1017,6 hPa 0,0 mm 5,9 km/h (2 Bft) W 281 ° 16,3 °C 17,3 °C 11,3 km/h (2 Bft)
05.09.2026 01:20 17,4 °C 95 % 1017,4 hPa 0,0 mm 5,5 km/h (1 Bft) W-NW 290 ° 16,6 °C 17,4 °C 11,3 km/h (2 Bft)
05.09.2026 01:15 17,4 °C 95 % 1017,4 hPa 0,0 mm 3,9 km/h (1 Bft) W 278 ° 16,6 °C 17,4 °C 6,4 km/h (2 Bft)
05.09.2026 01:10 17,4 °C 95 % 1017,2 hPa 0,0 mm 4,3 km/h (1 Bft) W 279 ° 16,6 °C 17,4 °C 9,7 km/h (2 Bft)
05.09.2026 01:05 17,4 °C 95 % 1017,2 hPa 0,0 mm 4,3 km/h (1 Bft) W 276 ° 16,6 °C 17,4 °C 11,3 km/h (2 Bft)
05.09.2026 01:00 17,4 °C 95 % 1017,2 hPa 0,0 mm 3,5 km/h (1 Bft) W-NW 284 ° 16,6 °C 17,4 °C 6,4 km/h (2 Bft)
05.09.2026 00:55 17,4 °C 95 % 1017,3 hPa 0,0 mm 1,7 km/h (1 Bft) W-NW 285 ° 16,6 °C 17,4 °C 6,4 km/h (2 Bft)
05.09.2026 00:50 17,4 °C 95 % 1017,2 hPa 0,0 mm 5,0 km/h (1 Bft) W-NW 286 ° 16,6 °C 17,4 °C 12,9 km/h (3 Bft)
05.09.2026 00:45 17,4 °C 95 % 1017,2 hPa 0,0 mm 3,0 km/h (1 Bft) NW 316 ° 16,6 °C 17,4 °C 6,4 km/h (2 Bft)
05.09.2026 00:40 17,4 °C 96 % 1017,2 hPa 0,0 mm 1,6 km/h (1 Bft) N-NW 347 ° 16,8 °C 17,4 °C 4,8 km/h (1 Bft)
05.09.2026 00:35 17,4 °C 96 % 1017,1 hPa 0,0 mm 3,1 km/h (1 Bft) N-NW 347 ° 16,8 °C 17,4 °C 6,4 km/h (2 Bft)
05.09.2026 00:30 17,4 °C 95 % 1017,0 hPa 0,0 mm 1,3 km/h (1 Bft) N-NW 348 ° 16,6 °C 17,4 °C 4,8 km/h (1 Bft)
05.09.2026 00:25 17,4 °C 96 % 1017,1 hPa 0,0 mm 1,9 km/h (1 Bft) N 349 ° 16,8 °C 17,4 °C 4,8 km/h (1 Bft)
05.09.2026 00:20 17,4 °C 96 % 1017,1 hPa 0,0 mm 2,2 km/h (1 Bft) N 349 ° 16,8 °C 17,4 °C 4,8 km/h (1 Bft)
05.09.2026 00:15 17,4 °C 96 % 1016,8 hPa 0,2 mm 2,2 km/h (1 Bft) N 349 ° 16,8 °C 17,4 °C 8,0 km/h (2 Bft)
05.09.2026 00:10 17,4 °C 96 % 1017,0 hPa 0,2 mm 0,9 km/h (0 Bft) W-NW 300 ° 16,8 °C 17,4 °C 6,4 km/h (2 Bft)
05.09.2026 00:05 17,4 °C 96 % 1016,8 hPa 0,0 mm 0,0 km/h (0 Bft) W-NW 284 ° 16,8 °C 17,4 °C 0,0 km/h (0 Bft)
05.09.2026 00:00 17,4 °C 96 % 1016,7 hPa 0,0 mm 0,0 km/h (0 Bft) W-NW 284 ° 16,8 °C 17,4 °C 0,0 km/h (0 Bft)
04.09.2026 23:55 17,4 °C 95 % 1016,8 hPa 0,0 mm 0,0 km/h (0 Bft) W-NW 284 ° 16,6 °C 17,4 °C 0,0 km/h (0 Bft)
04.09.2026 23:50 17,4 °C 95 % 1016,7 hPa 0,0 mm 0,0 km/h (0 Bft) W-NW 284 ° 16,6 °C 17,4 °C 0,0 km/h (0 Bft)
04.09.2026 23:45 17,4 °C 95 % 1016,7 hPa 0,0 mm 0,0 km/h (0 Bft) W-NW 284 ° 16,6 °C 17,4 °C 0,0 km/h (0 Bft)
04.09.2026 23:40 17,4 °C 96 % 1016,9 hPa 0,0 mm 0,0 km/h (0 Bft) W-NW 284 ° 16,8 °C 17,4 °C 0,0 km/h (0 Bft)
04.09.2026 23:35 17,4 °C 96 % 1016,8 hPa 0,0 mm 0,0 km/h (0 Bft) W-NW 284 ° 16,8 °C 17,4 °C 0,0 km/h (0 Bft)
04.09.2026 23:30 17,4 °C 95 % 1016,9 hPa 0,0 mm 0,0 km/h (0 Bft) W-NW 284 ° 16,6 °C 17,4 °C 0,0 km/h (0 Bft)
04.09.2026 23:25 17,4 °C 95 % 1017,0 hPa 0,0 mm 0,0 km/h (0 Bft) W-NW 284 ° 16,6 °C 17,4 °C 0,0 km/h (0 Bft)
04.09.2026 23:20 17,4 °C 95 % 1016,9 hPa 0,0 mm 0,0 km/h (0 Bft) W-NW 284 ° 16,6 °C 17,4 °C 0,0 km/h (0 Bft)
04.09.2026 23:15 17,4 °C 95 % 1016,7 hPa 0,0 mm 0,3 km/h (0 Bft) W-NW 284 ° 16,6 °C 17,4 °C 1,6 km/h (1 Bft)
04.09.2026 23:10 17,4 °C 95 % 1016,5 hPa 0,0 mm 0,4 km/h (0 Bft) W-NW 284 ° 16,6 °C 17,4 °C 1,6 km/h (1 Bft)
04.09.2026 23:05 17,4 °C 95 % 1016,4 hPa 0,0 mm 0,6 km/h (0 Bft) W-NW 284 ° 16,6 °C 17,4 °C 1,6 km/h (1 Bft)
04.09.2026 23:00 17,4 °C 95 % 1016,5 hPa 0,0 mm 0,9 km/h (0 Bft) W-NW 284 ° 16,6 °C 17,4 °C 3,2 km/h (1 Bft)
04.09.2026 22:55 17,4 °C 95 % 1016,4 hPa 0,0 mm 0,8 km/h (0 Bft) W-NW 284 ° 16,6 °C 17,4 °C 3,2 km/h (1 Bft)
04.09.2026 22:50 17,4 °C 95 % 1016,4 hPa 0,0 mm 0,4 km/h (0 Bft) W-NW 284 ° 16,6 °C 17,4 °C 3,2 km/h (1 Bft)
04.09.2026 22:45 17,4 °C 95 % 1016,4 hPa 0,0 mm 0,7 km/h (0 Bft) W-NW 284 ° 16,6 °C 17,4 °C 3,2 km/h (1 Bft)
04.09.2026 22:40 17,4 °C 95 % 1016,6 hPa 0,0 mm 0,7 km/h (0 Bft) W-NW 284 ° 16,6 °C 17,4 °C 3,2 km/h (1 Bft)
04.09.2026 22:35 17,4 °C 95 % 1016,6 hPa 0,0 mm 2,2 km/h (1 Bft) W-NW 284 ° 16,6 °C 17,4 °C 4,8 km/h (1 Bft)
04.09.2026 22:30 17,4 °C 95 % 1016,5 hPa 0,0 mm 2,0 km/h (1 Bft) W-NW 284 ° 16,6 °C 17,4 °C 4,8 km/h (1 Bft)
04.09.2026 22:25 17,4 °C 95 % 1016,3 hPa 0,0 mm 2,4 km/h (1 Bft) W-NW 284 ° 16,6 °C 17,4 °C 4,8 km/h (1 Bft)
04.09.2026 22:20 17,4 °C 96 % 1016,3 hPa 0,0 mm 1,6 km/h (1 Bft) W-NW 284 ° 16,8 °C 17,4 °C 3,2 km/h (1 Bft)
04.09.2026 22:15 17,5 °C 96 % 1016,2 hPa 0,0 mm 1,6 km/h (1 Bft) W-NW 284 ° 16,9 °C 17,5 °C 6,4 km/h (2 Bft)
04.09.2026 22:10 17,5 °C 96 % 1016,4 hPa 0,0 mm 1,7 km/h (1 Bft) W-NW 285 ° 16,9 °C 17,5 °C 6,4 km/h (2 Bft)
04.09.2026 22:05 17,4 °C 96 % 1016,4 hPa 0,0 mm 1,6 km/h (1 Bft) W-NW 285 ° 16,8 °C 17,4 °C 4,8 km/h (1 Bft)
04.09.2026 22:00 17,4 °C 96 % 1016,4 hPa 0,0 mm 2,0 km/h (1 Bft) W-NW 284 ° 16,8 °C 17,4 °C 4,8 km/h (1 Bft)
04.09.2026 21:55 17,4 °C 96 % 1016,3 hPa 0,0 mm 2,1 km/h (1 Bft) W-NW 283 ° 16,8 °C 17,4 °C 4,8 km/h (1 Bft)
04.09.2026 21:50 17,4 °C 96 % 1016,2 hPa 0,0 mm 1,7 km/h (1 Bft) W-NW 283 ° 16,8 °C 17,4 °C 4,8 km/h (1 Bft)
04.09.2026 21:45 17,4 °C 96 % 1016,1 hPa 0,0 mm 1,1 km/h (1 Bft) W-NW 282 ° 16,8 °C 17,4 °C 4,8 km/h (1 Bft)
04.09.2026 21:40 17,4 °C 96 % 1016,1 hPa 0,0 mm 0,9 km/h (0 Bft) W-NW 282 ° 16,8 °C 17,4 °C 4,8 km/h (1 Bft)
04.09.2026 21:35 17,5 °C 96 % 1015,9 hPa 0,0 mm 0,8 km/h (0 Bft) W-NW 282 ° 16,9 °C 17,5 °C 3,2 km/h (1 Bft)
04.09.2026 21:30 17,5 °C 96 % 1015,8 hPa 0,0 mm 2,1 km/h (1 Bft) W-NW 282 ° 16,9 °C 17,5 °C 4,8 km/h (1 Bft)
04.09.2026 21:25 17,5 °C 96 % 1015,9 hPa 0,0 mm 1,4 km/h (1 Bft) W 281 ° 16,9 °C 17,5 °C 4,8 km/h (1 Bft)
04.09.2026 21:20 17,4 °C 96 % 1015,7 hPa 0,0 mm 1,2 km/h (1 Bft) W 281 ° 16,8 °C 17,4 °C 4,8 km/h (1 Bft)
04.09.2026 21:15 17,4 °C 96 % 1015,5 hPa 0,0 mm 4,0 km/h (1 Bft) W 281 ° 16,8 °C 17,4 °C 9,7 km/h (2 Bft)
04.09.2026 21:10 17,4 °C 96 % 1015,6 hPa 0,0 mm 5,1 km/h (1 Bft) W 281 ° 16,8 °C 17,4 °C 9,7 km/h (2 Bft)
04.09.2026 21:05 17,4 °C 96 % 1015,5 hPa 0,0 mm 4,6 km/h (1 Bft) W-NW 287 ° 16,8 °C 17,4 °C 11,3 km/h (2 Bft)
04.09.2026 21:00 17,3 °C 96 % 1015,6 hPa 0,0 mm 4,6 km/h (1 Bft) W-NW 293 ° 16,7 °C 17,3 °C 9,7 km/h (2 Bft)
04.09.2026 20:55 17,3 °C 96 % 1015,4 hPa 0,2 mm 3,6 km/h (1 Bft) N-NW 342 ° 16,7 °C 17,3 °C 6,4 km/h (2 Bft)
04.09.2026 20:50 17,3 °C 96 % 1015,5 hPa 0,2 mm 3,1 km/h (1 Bft) N-NW 344 ° 16,7 °C 17,3 °C 6,4 km/h (2 Bft)
04.09.2026 20:45 17,3 °C 96 % 1015,3 hPa 0,2 mm 1,6 km/h (1 Bft) N-NW 345 ° 16,7 °C 17,3 °C 4,8 km/h (1 Bft)
04.09.2026 20:40 17,2 °C 96 % 1015,4 hPa 0,0 mm 2,7 km/h (1 Bft) N-NW 345 ° 16,6 °C 17,2 °C 9,7 km/h (2 Bft)
04.09.2026 20:35 17,2 °C 96 % 1015,3 hPa 0,0 mm 2,2 km/h (1 Bft) N-NW 343 ° 16,6 °C 17,2 °C 4,8 km/h (1 Bft)
04.09.2026 20:30 17,0 °C 96 % 1015,2 hPa 0,0 mm 0,8 km/h (0 Bft) N-NW 343 ° 16,4 °C 17,0 °C 4,8 km/h (1 Bft)
04.09.2026 20:25 16,9 °C 96 % 1015,1 hPa 0,0 mm 0,8 km/h (0 Bft) N-NW 344 ° 16,3 °C 16,9 °C 4,8 km/h (1 Bft)
04.09.2026 20:20 16,9 °C 96 % 1014,9 hPa 0,0 mm 0,8 km/h (0 Bft) N-NW 344 ° 16,3 °C 16,9 °C 3,2 km/h (1 Bft)
04.09.2026 20:15 16,8 °C 95 % 1014,9 hPa 0,2 mm 0,3 km/h (0 Bft) N-NW 344 ° 16,0 °C 16,8 °C 1,6 km/h (1 Bft)
04.09.2026 20:10 16,8 °C 95 % 1015,1 hPa 0,0 mm 1,1 km/h (1 Bft) N-NW 344 ° 16,0 °C 16,8 °C 4,8 km/h (1 Bft)
04.09.2026 20:05 16,8 °C 95 % 1015,1 hPa 0,4 mm 2,0 km/h (1 Bft) N-NW 344 ° 16,0 °C 16,8 °C 4,8 km/h (1 Bft)
04.09.2026 20:00 16,8 °C 95 % 1015,1 hPa 0,6 mm 2,6 km/h (1 Bft) N-NW 343 ° 16,0 °C 16,8 °C 8,0 km/h (2 Bft)
04.09.2026 19:55 16,9 °C 94 % 1015,1 hPa 0,6 mm 6,0 km/h (2 Bft) N-NW 342 ° 15,9 °C 16,9 °C 14,5 km/h (3 Bft)
04.09.2026 19:50 17,0 °C 94 % 1015,0 hPa 0,4 mm 6,4 km/h (2 Bft) N 355 ° 16,0 °C 17,0 °C 16,1 km/h (3 Bft)
04.09.2026 19:45 17,2 °C 94 % 1014,9 hPa 0,4 mm 4,7 km/h (1 Bft) N-NW 334 ° 16,2 °C 17,2 °C 14,5 km/h (3 Bft)
04.09.2026 19:40 17,2 °C 94 % 1014,9 hPa 0,8 mm 6,5 km/h (2 Bft) N-NW 342 ° 16,2 °C 17,2 °C 17,7 km/h (3 Bft)
04.09.2026 19:35 17,3 °C 93 % 1015,0 hPa 1,0 mm 8,4 km/h (2 Bft) N-NW 340 ° 16,2 °C 16,3 °C 17,7 km/h (3 Bft)
04.09.2026 19:30 17,4 °C 93 % 1015,0 hPa 0,4 mm 10,1 km/h (2 Bft) NW 325 ° 16,3 °C 15,7 °C 20,9 km/h (4 Bft)
04.09.2026 19:25 17,5 °C 92 % 1014,8 hPa 0,0 mm 9,0 km/h (2 Bft) N-NW 342 ° 16,2 °C 16,3 °C 17,7 km/h (3 Bft)
04.09.2026 19:20 17,6 °C 91 % 1014,4 hPa 0,0 mm 10,0 km/h (2 Bft) N-NW 340 ° 16,1 °C 16,0 °C 20,9 km/h (4 Bft)
04.09.2026 19:15 17,7 °C 91 % 1014,2 hPa 0,0 mm 11,5 km/h (2 Bft) N-NW 336 ° 16,2 °C 15,6 °C 19,3 km/h (3 Bft)
04.09.2026 19:10 17,9 °C 89 % 1014,0 hPa 0,0 mm 10,1 km/h (2 Bft) N-NW 336 ° 16,1 °C 16,3 °C 24,1 km/h (4 Bft)
04.09.2026 19:05 18,3 °C 88 % 1014,0 hPa 0,0 mm 11,1 km/h (2 Bft) N-NW 327 ° 16,3 °C 16,4 °C 22,5 km/h (4 Bft)
04.09.2026 19:00 18,7 °C 85 % 1013,9 hPa 0,0 mm 11,6 km/h (2 Bft) NW 313 ° 16,1 °C 16,7 °C 24,1 km/h (4 Bft)
04.09.2026 18:55 19,5 °C 82 % 1013,9 hPa 0,0 mm 16,0 km/h (3 Bft) N-NW 342 ° 16,3 °C 16,4 °C 30,6 km/h (5 Bft)
04.09.2026 18:50 20,9 °C 77 % 1013,9 hPa 0,0 mm 11,3 km/h (2 Bft) N 9 ° 16,7 °C 19,3 °C 20,9 km/h (4 Bft)
04.09.2026 18:45 23,3 °C 70 % 1013,8 hPa 0,0 mm 18,6 km/h (3 Bft) NO 38 ° 17,5 °C 20,7 °C 32,2 km/h (5 Bft)
04.09.2026 18:40 24,8 °C 68 % 1012,9 hPa 0,0 mm 15,3 km/h (3 Bft) W-NW 282 ° 18,5 °C 23,0 °C 32,2 km/h (5 Bft)
04.09.2026 18:35 24,9 °C 67 % 1012,9 hPa 0,0 mm 12,7 km/h (3 Bft) W 281 ° 18,3 °C 23,6 °C 24,1 km/h (4 Bft)
04.09.2026 18:30 25,1 °C 66 % 1012,8 hPa 0,0 mm 15,7 km/h (3 Bft) W 276 ° 18,3 °C 23,3 °C 25,7 km/h (4 Bft)
04.09.2026 18:25 25,3 °C 66 % 1012,8 hPa 0,0 mm 20,9 km/h (4 Bft) W-NW 290 ° 18,5 °C 23,0 °C 32,2 km/h (5 Bft)
04.09.2026 18:20 25,7 °C 64 % 1012,7 hPa 0,0 mm 17,4 km/h (3 Bft) W 279 ° 18,4 °C 23,9 °C 32,2 km/h (5 Bft)
04.09.2026 18:15 26,0 °C 63 % 1012,8 hPa 0,0 mm 15,5 km/h (3 Bft) W 280 ° 18,4 °C 24,5 °C 29,0 km/h (5 Bft)
04.09.2026 18:10 25,8 °C 63 % 1012,7 hPa 0,0 mm 20,3 km/h (4 Bft) W-SW 257 ° 18,2 °C 23,7 °C 40,2 km/h (6 Bft)
04.09.2026 18:05 25,7 °C 63 % 1012,8 hPa 0,0 mm 18,5 km/h (3 Bft) W-SW 247 ° 18,1 °C 23,7 °C 37,0 km/h (5 Bft)
04.09.2026 18:00 25,9 °C 63 % 1012,8 hPa 0,0 mm 16,8 km/h (3 Bft) W 269 ° 18,3 °C 24,2 °C 30,6 km/h (5 Bft)
04.09.2026 17:55 26,2 °C 63 % 1012,8 hPa 0,0 mm 20,3 km/h (4 Bft) W-NW 284 ° 18,6 °C 24,2 °C 33,8 km/h (5 Bft)
04.09.2026 17:50 26,3 °C 62 % 1012,8 hPa 0,0 mm 17,2 km/h (3 Bft) W-NW 283 ° 18,4 °C 24,6 °C 37,0 km/h (5 Bft)
04.09.2026 17:45 26,2 °C 63 % 1012,8 hPa 0,0 mm 16,3 km/h (3 Bft) W-SW 257 ° 18,6 °C 24,6 °C 27,4 km/h (4 Bft)
04.09.2026 17:40 26,1 °C 62 % 1012,7 hPa 0,0 mm 17,0 km/h (3 Bft) SW 234 ° 18,2 °C 24,4 °C 32,2 km/h (5 Bft)
04.09.2026 17:35 26,4 °C 62 % 1012,9 hPa 0,0 mm 16,9 km/h (3 Bft) W 281 ° 18,5 °C 24,8 °C 27,4 km/h (4 Bft)
04.09.2026 17:30 26,4 °C 61 % 1012,7 hPa 0,0 mm 17,7 km/h (3 Bft) SW 218 ° 18,3 °C 24,7 °C 38,6 km/h (5 Bft)
04.09.2026 17:25 26,2 °C 62 % 1012,7 hPa 0,0 mm 17,1 km/h (3 Bft) W-NW 296 ° 18,3 °C 24,5 °C 29,0 km/h (5 Bft)
04.09.2026 17:20 26,2 °C 61 % 1012,8 hPa 0,0 mm 18,1 km/h (3 Bft) SW 234 ° 18,1 °C 24,4 °C 40,2 km/h (6 Bft)
04.09.2026 17:15 26,7 °C 60 % 1012,7 hPa 0,0 mm 15,7 km/h (3 Bft) NW 309 ° 18,3 °C 25,3 °C 25,7 km/h (4 Bft)
04.09.2026 17:10 26,6 °C 61 % 1012,6 hPa 0,0 mm 16,0 km/h (3 Bft) W 269 ° 18,4 °C 25,1 °C 29,0 km/h (5 Bft)
04.09.2026 17:05 26,4 °C 61 % 1012,7 hPa 0,0 mm 13,7 km/h (3 Bft) W-NW 286 ° 18,3 °C 25,2 °C 32,2 km/h (5 Bft)
04.09.2026 17:00 26,2 °C 61 % 1012,7 hPa 0,0 mm 15,6 km/h (3 Bft) W-NW 292 ° 18,1 °C 24,7 °C 24,1 km/h (4 Bft)
04.09.2026 16:55 26,4 °C 60 % 1012,7 hPa 0,0 mm 17,0 km/h (3 Bft) W 273 ° 18,0 °C 24,8 °C 32,2 km/h (5 Bft)
04.09.2026 16:50 26,7 °C 60 % 1012,8 hPa 0,0 mm 17,0 km/h (3 Bft) W-NW 285 ° 18,3 °C 25,1 °C 37,0 km/h (5 Bft)
04.09.2026 16:45 27,0 °C 59 % 1012,7 hPa 0,0 mm 17,4 km/h (3 Bft) W 279 ° 18,3 °C 25,5 °C 29,0 km/h (5 Bft)
04.09.2026 16:40 27,3 °C 58 % 1012,8 hPa 0,0 mm 18,2 km/h (3 Bft) W-NW 287 ° 18,3 °C 25,8 °C 43,5 km/h (6 Bft)
04.09.2026 16:35 27,2 °C 60 % 1012,7 hPa 0,0 mm 19,1 km/h (3 Bft) W 263 ° 18,7 °C 25,6 °C 37,0 km/h (5 Bft)
04.09.2026 16:30 27,1 °C 61 % 1012,7 hPa 0,0 mm 14,7 km/h (3 Bft) W 281 ° 18,9 °C 25,9 °C 32,2 km/h (5 Bft)
04.09.2026 16:25 26,8 °C 64 % 1012,7 hPa 0,0 mm 11,6 km/h (2 Bft) W 273 ° 19,4 °C 25,9 °C 20,9 km/h (4 Bft)
04.09.2026 16:20 26,4 °C 63 % 1012,9 hPa 0,0 mm 15,1 km/h (3 Bft) W 261 ° 18,8 °C 25,0 °C 27,4 km/h (4 Bft)
04.09.2026 16:15 26,4 °C 64 % 1012,8 hPa 0,0 mm 10,9 km/h (2 Bft) W-NW 303 ° 19,0 °C 25,6 °C 24,1 km/h (4 Bft)
04.09.2026 16:10 26,4 °C 63 % 1012,9 hPa 0,0 mm 13,2 km/h (3 Bft) W-NW 285 ° 18,8 °C 25,2 °C 24,1 km/h (4 Bft)
04.09.2026 16:05 26,6 °C 62 % 1012,9 hPa 0,0 mm 16,4 km/h (3 Bft) W 275 ° 18,7 °C 25,1 °C 30,6 km/h (5 Bft)
04.09.2026 16:00 27,0 °C 62 % 1012,8 hPa 0,0 mm 17,5 km/h (3 Bft) SW 230 ° 19,1 °C 25,5 °C 29,0 km/h (5 Bft)
04.09.2026 15:55 26,9 °C 62 % 1012,9 hPa 0,0 mm 18,1 km/h (3 Bft) W 279 ° 19,0 °C 25,3 °C 37,0 km/h (5 Bft)
04.09.2026 15:50 27,1 °C 62 % 1012,8 hPa 0,0 mm 15,4 km/h (3 Bft) W 278 ° 19,2 °C 25,8 °C 35,4 km/h (5 Bft)
04.09.2026 15:45 26,8 °C 63 % 1012,8 hPa 0,0 mm 16,0 km/h (3 Bft) W 274 ° 19,1 °C 25,4 °C 32,2 km/h (5 Bft)
04.09.2026 15:40 26,4 °C 64 % 1012,6 hPa 0,0 mm 14,2 km/h (3 Bft) SW 229 ° 19,0 °C 25,1 °C 27,4 km/h (4 Bft)
04.09.2026 15:35 26,6 °C 64 % 1012,6 hPa 0,0 mm 16,9 km/h (3 Bft) W 266 ° 19,2 °C 25,0 °C 30,6 km/h (5 Bft)
04.09.2026 15:30 26,6 °C 63 % 1012,6 hPa 0,0 mm 15,6 km/h (3 Bft) W 277 ° 19,0 °C 25,2 °C 29,0 km/h (5 Bft)
04.09.2026 15:25 26,4 °C 65 % 1012,5 hPa 0,0 mm 13,2 km/h (3 Bft) W-SW 249 ° 19,3 °C 25,2 °C 25,7 km/h (4 Bft)
04.09.2026 15:20 26,3 °C 64 % 1012,5 hPa 0,0 mm 16,0 km/h (3 Bft) W 261 ° 18,9 °C 24,8 °C 30,6 km/h (5 Bft)
04.09.2026 15:15 26,4 °C 63 % 1012,4 hPa 0,0 mm 15,3 km/h (3 Bft) W-NW 284 ° 18,8 °C 25,0 °C 29,0 km/h (5 Bft)
04.09.2026 15:10 26,6 °C 63 % 1012,4 hPa 0,0 mm 17,0 km/h (3 Bft) W-NW 282 ° 19,0 °C 25,0 °C 32,2 km/h (5 Bft)
04.09.2026 15:05 26,7 °C 63 % 1012,4 hPa 0,0 mm 17,5 km/h (3 Bft) W 270 ° 19,1 °C 25,1 °C 33,8 km/h (5 Bft)
04.09.2026 15:00 26,6 °C 65 % 1012,4 hPa 0,0 mm 12,7 km/h (3 Bft) W-SW 250 ° 19,5 °C 25,5 °C 22,5 km/h (4 Bft)
04.09.2026 14:55 26,5 °C 64 % 1012,5 hPa 0,0 mm 16,6 km/h (3 Bft) NW 308 ° 19,1 °C 24,9 °C 27,4 km/h (4 Bft)
04.09.2026 14:50 26,6 °C 64 % 1012,5 hPa 0,0 mm 17,6 km/h (3 Bft) W 271 ° 19,2 °C 25,0 °C 30,6 km/h (5 Bft)
04.09.2026 14:45 26,7 °C 64 % 1012,4 hPa 0,0 mm 14,3 km/h (3 Bft) W 270 ° 19,3 °C 25,4 °C 25,7 km/h (4 Bft)
04.09.2026 14:40 26,7 °C 64 % 1012,5 hPa 0,0 mm 16,0 km/h (3 Bft) W 279 ° 19,3 °C 25,3 °C 30,6 km/h (5 Bft)
04.09.2026 14:35 26,8 °C 64 % 1012,5 hPa 0,0 mm 14,8 km/h (3 Bft) W-NW 286 ° 19,4 °C 25,5 °C 25,7 km/h (4 Bft)
04.09.2026 14:30 26,9 °C 64 % 1012,6 hPa 0,0 mm 16,0 km/h (3 Bft) W-NW 295 ° 19,5 °C 25,5 °C 30,6 km/h (5 Bft)
04.09.2026 14:25 26,9 °C 64 % 1012,6 hPa 0,0 mm 15,0 km/h (3 Bft) W 275 ° 19,5 °C 25,6 °C 25,7 km/h (4 Bft)
04.09.2026 14:20 26,9 °C 64 % 1012,7 hPa 0,0 mm 15,4 km/h (3 Bft) W-SW 252 ° 19,5 °C 25,6 °C 32,2 km/h (5 Bft)
04.09.2026 14:15 26,7 °C 64 % 1012,7 hPa 0,0 mm 15,1 km/h (3 Bft) W-SW 252 ° 19,3 °C 25,4 °C 35,4 km/h (5 Bft)
04.09.2026 14:10 26,7 °C 63 % 1012,8 hPa 0,0 mm 17,4 km/h (3 Bft) W 281 ° 19,1 °C 25,1 °C 30,6 km/h (5 Bft)
04.09.2026 14:05 26,8 °C 63 % 1012,7 hPa 0,0 mm 16,8 km/h (3 Bft) W-SW 252 ° 19,1 °C 25,3 °C 30,6 km/h (5 Bft)
04.09.2026 14:00 26,8 °C 64 % 1012,7 hPa 0,0 mm 16,4 km/h (3 Bft) W-NW 298 ° 19,4 °C 25,3 °C 27,4 km/h (4 Bft)
_ Min-Zeit 06:55 16:40 14:45 - 23:20 - - 07:00 07:00 23:20
Minimum _ 13,8 °C 58 % 1012,4 hPa - 0,0 km/h (0 Bft) - - 12,7 °C 13,8 °C 0,0 km/h (0 Bft)
_ Max-Zeit 16:40 20:20 13:40 19:35 18:25 - - 14:20 16:25 16:40
Maximum _ 27,4 °C 96 % 1023,1 hPa 1,0 mm 20,9 km/h
W-NW (4 Bft)
- - 19,5 °C 25,9 °C 43,5 km/h
W-SW (6 Bft)
Durchschnitt _ 19,4 °C 82 % 1017,1 hPa #6,0 mm 7,7 km/h (2 Bft) W - 15,8 °C 18,6 °C 15,2 km/h (3 Bft)